INFORMAÇÕES DO AERODROMO
Icao Aerodromo SBLS Nome do Aerodromo Lagoa Santa Airport Cidade Lagoa Santa
Código GPS SBLS Elevação Média 2795 ft Tipo de Aerodromo small_airport

INFORMAÇÃO DE PISTA
Pista 13 Comprimento da Pista 6037 ft Largura da Pista 98 ft
Elevação da Pista 0 ft Distância de Area de Escape da Pista 0 ft Orientação da Pista 0
Pista 31 Comprimento da Pista 6037 ft Largura da Pista 98 ft
Elevação da Pista 0 ft Distância de Area de Escape da Pista 0 ft Orientação da Pista 0

FREQUÊNCIAS DO AERODROMO
Tipo AFIS Nome RDO Frequência 122.8 MHZ

INFORMAÇÕES DE NAVEGAÇÃO PRÓXIMO AO AERODROMO
Tipo NDB Nome Lagoa Santa Frequência 295 KHZ

Informações de Meteorologia(METAR atual)
METAR DE SBLS
ADDS - METARS form results

(0039 UTC 21 April 2019)
Data provider http://aviationweather.gov/metar/data/
 
METAR text: SBLS 210000Z 19005KT CAVOK 22/14 Q1018
Conditions at: SBLS (LAGOA SANTA(CV/M, BR) observed 0000 UTC 21 April 2019
Temperature: 22.0°C (72°F)
Dewpoint: 14.0°C (57°F) [RH = 60%]
Pressure (altimeter): 30.06 inches Hg (1018.0 mb)
Winds: from the S (190 degrees) at 6 MPH (5 knots; 2.6 m/s)
Visibility: 6 or more miles (10+ km)
Ceiling: ceiling and visibility are OK
Clouds: unknown
Weather: no significant weather observed at this time

MAPA DO AERODROMO


Desenvolvido por Virtual Airlines Manager




Modificado por Servidor Brasil Amigos